createdAt,value
2022-12-04T00:00:26.434Z,2.05
2022-12-04T00:01:28.767Z,2.02
2022-12-04T00:02:30.400Z,2.00
2022-12-04T00:03:31.800Z,2.01
2022-12-04T00:04:33.248Z,1.99
2022-12-04T00:05:34.721Z,1.92
2022-12-04T00:06:36.269Z,1.92
2022-12-04T00:07:37.710Z,1.94
2022-12-04T00:08:39.702Z,1.91
2022-12-04T00:09:41.098Z,1.87
2022-12-04T00:10:43.272Z,1.87
2022-12-04T00:11:44.625Z,1.91
2022-12-04T00:12:46.026Z,1.94
2022-12-04T00:13:47.761Z,1.98
2022-12-04T00:15:23.383Z,2.01
2022-12-04T00:16:15.506Z,1.94
2022-12-04T00:17:16.915Z,1.92
2022-12-04T00:18:18.290Z,1.92
2022-12-04T00:19:19.652Z,1.85
2022-12-04T00:20:21.064Z,1.76
2022-12-04T00:21:23.286Z,1.73
2022-12-04T00:22:24.671Z,1.75
2022-12-04T00:23:26.052Z,1.75
2022-12-04T00:24:27.524Z,1.70
2022-12-04T00:25:30.547Z,1.70
2022-12-04T00:26:31.975Z,1.66
2022-12-04T00:27:33.362Z,1.63
2022-12-04T00:28:35.279Z,1.62
2022-12-04T00:29:36.824Z,1.52
2022-12-04T00:30:40.753Z,1.51
2022-12-04T00:31:42.125Z,1.47
2022-12-04T00:32:43.542Z,1.45
2022-12-04T00:33:45.545Z,1.43
2022-12-04T00:34:46.970Z,1.44
2022-12-04T00:35:48.321Z,1.40
2022-12-04T00:36:49.678Z,1.39
2022-12-04T00:37:51.234Z,1.44
2022-12-04T00:38:52.814Z,1.46
2022-12-04T00:39:54.507Z,1.44
2022-12-04T00:40:56.156Z,1.37
2022-12-04T00:41:57.538Z,1.38
2022-12-04T00:42:58.886Z,1.42
2022-12-04T00:44:00.836Z,1.45
2022-12-04T00:45:02.281Z,1.48
2022-12-04T00:46:03.673Z,1.46
2022-12-04T00:47:05.069Z,1.44
2022-12-04T00:48:06.401Z,1.39
2022-12-04T00:49:07.759Z,1.39
2022-12-04T00:50:09.382Z,1.42
2022-12-04T00:51:12.656Z,1.47
2022-12-04T00:52:14.046Z,1.46
2022-12-04T00:53:15.425Z,1.51
2022-12-04T00:54:16.780Z,1.50
2022-12-04T00:55:18.171Z,1.48
2022-12-04T00:56:21.192Z,1.51
2022-12-04T00:57:22.570Z,1.46
2022-12-04T00:58:23.981Z,1.47
2022-12-04T00:59:25.464Z,1.49
2022-12-04T01:00:26.885Z,1.40
2022-12-04T01:01:28.858Z,1.47
2022-12-04T01:02:30.490Z,1.43
2022-12-04T01:03:32.100Z,1.45
2022-12-04T01:04:33.524Z,1.37
2022-12-04T01:05:38.458Z,1.35
2022-12-04T01:06:39.838Z,1.31
2022-12-04T01:07:41.277Z,1.29
2022-12-04T01:08:42.644Z,1.33
2022-12-04T01:09:44.082Z,1.36
2022-12-04T01:10:45.489Z,1.34
2022-12-04T01:11:47.030Z,1.29
2022-12-04T01:12:51.820Z,1.33
2022-12-04T01:13:53.262Z,1.29
2022-12-04T01:14:54.643Z,1.30
2022-12-04T01:15:56.023Z,1.25
2022-12-04T01:16:57.478Z,1.17
2022-12-04T01:17:58.845Z,1.24
2022-12-04T01:19:00.200Z,1.23
2022-12-04T01:20:01.606Z,1.23
2022-12-04T01:21:03.317Z,1.23
2022-12-04T01:22:04.690Z,1.25
2022-12-04T01:23:06.195Z,1.22
2022-12-04T01:24:08.014Z,1.16
2022-12-04T01:25:09.639Z,1.12
2022-12-04T01:26:11.014Z,1.11
2022-12-04T01:27:12.412Z,1.16
2022-12-04T01:28:13.764Z,1.12
2022-12-04T01:29:15.174Z,1.09
2022-12-04T01:30:16.670Z,1.09
2022-12-04T01:31:19.192Z,1.11
2022-12-04T01:32:20.644Z,1.07
2022-12-04T01:33:21.985Z,1.05
2022-12-04T01:34:23.356Z,1.05
2022-12-04T01:35:24.776Z,1.05
2022-12-04T01:36:27.679Z,1.09
2022-12-04T01:37:30.449Z,1.09
2022-12-04T01:38:31.853Z,1.10
2022-12-04T01:39:35.690Z,1.06
2022-12-04T01:40:37.074Z,1.09
2022-12-04T01:41:38.417Z,1.12
2022-12-04T01:42:39.780Z,1.08
2022-12-04T01:43:41.603Z,1.07
2022-12-04T01:44:44.435Z,1.06
2022-12-04T01:45:47.636Z,1.08
2022-12-04T01:46:53.435Z,1.09
2022-12-04T01:47:56.144Z,1.09
2022-12-04T01:48:57.537Z,1.07
2022-12-04T01:49:59.401Z,1.08
2022-12-04T01:51:11.816Z,1.02
2022-12-04T01:52:21.283Z,1.01
2022-12-04T01:53:22.749Z,1.00
2022-12-04T01:54:34.069Z,0.98
2022-12-04T01:55:35.547Z,0.97
2022-12-04T01:56:45.016Z,0.90
2022-12-04T01:57:46.397Z,0.86
2022-12-04T01:58:51.269Z,0.86
2022-12-04T01:59:56.268Z,0.81
2022-12-04T02:01:06.504Z,0.78
2022-12-04T02:02:11.720Z,0.79
2022-12-04T02:03:13.423Z,0.88
2022-12-04T02:04:14.882Z,0.86
2022-12-04T02:05:18.212Z,0.83
2022-12-04T02:06:19.567Z,0.83
2022-12-04T02:07:20.943Z,0.84
2022-12-04T02:08:22.473Z,0.80
2022-12-04T02:09:26.850Z,0.78
2022-12-04T02:10:37.062Z,0.77
2022-12-04T02:11:38.415Z,0.76
2022-12-04T02:12:49.524Z,0.78
2022-12-04T02:13:56.655Z,0.77
2022-12-04T02:15:16.253Z,0.66
2022-12-04T02:16:25.870Z,0.64
2022-12-04T02:17:46.623Z,0.64
2022-12-04T02:19:06.600Z,0.67
2022-12-04T02:20:14.180Z,0.58
2022-12-04T02:21:26.201Z,0.55
2022-12-04T02:22:30.589Z,0.62
2022-12-04T02:23:50.417Z,0.64
2022-12-04T02:24:57.724Z,0.64
2022-12-04T02:25:59.041Z,0.61
2022-12-04T02:27:03.508Z,0.59
2022-12-04T02:28:09.140Z,0.64
2022-12-04T02:29:10.470Z,0.67
2022-12-04T02:30:13.236Z,0.70
2022-12-04T02:31:18.880Z,0.72
2022-12-04T02:32:20.314Z,0.73
2022-12-04T02:33:36.968Z,0.75
2022-12-04T02:34:43.515Z,0.79
2022-12-04T02:36:05.142Z,0.74
2022-12-04T02:37:10.663Z,0.74
2022-12-04T02:38:17.269Z,0.76
2022-12-04T02:39:21.289Z,0.77
2022-12-04T02:40:31.260Z,0.80
2022-12-04T02:41:52.873Z,0.79
2022-12-04T02:43:03.765Z,0.74
2022-12-04T02:44:08.909Z,0.72
2022-12-04T02:45:13.674Z,0.72
2022-12-04T02:46:19.275Z,0.78
2022-12-04T02:47:22.738Z,0.68
2022-12-04T02:48:26.198Z,0.68
2022-12-04T02:49:37.113Z,0.64
2022-12-04T02:50:40.357Z,0.65
2022-12-04T02:51:43.200Z,0.63
2022-12-04T02:52:47.823Z,0.59
2022-12-04T02:53:57.856Z,0.57
2022-12-04T02:55:08.204Z,0.57
2022-12-04T02:56:15.601Z,0.59
2022-12-04T02:57:20.113Z,0.65
2022-12-04T02:58:25.728Z,0.59
2022-12-04T02:59:38.002Z,0.61
2022-12-04T03:00:41.276Z,0.68
2022-12-04T03:01:45.441Z,0.70
2022-12-04T03:02:56.271Z,0.67
2022-12-04T03:04:04.043Z,0.64
2022-12-04T03:05:09.201Z,0.64
2022-12-04T03:06:11.883Z,0.61
2022-12-04T03:07:15.559Z,0.70
2022-12-04T03:08:19.774Z,0.72
2022-12-04T03:09:24.948Z,0.69
2022-12-04T03:10:30.104Z,0.56
2022-12-04T03:11:34.081Z,0.59
2022-12-04T03:12:38.450Z,0.57
2022-12-04T03:14:00.072Z,0.60
2022-12-04T03:15:03.477Z,0.62
2022-12-04T03:16:11.129Z,0.61
2022-12-04T03:17:21.028Z,0.61
2022-12-04T03:18:26.182Z,0.64
2022-12-04T03:19:34.137Z,0.68
2022-12-04T03:20:36.894Z,0.65
2022-12-04T03:21:41.477Z,0.64
2022-12-04T03:22:45.924Z,0.67
2022-12-04T03:23:55.930Z,0.70
2022-12-04T03:24:57.484Z,0.75
2022-12-04T03:26:31.411Z,0.75
2022-12-04T03:27:46.251Z,0.84
2022-12-04T03:28:53.357Z,0.87
2022-12-04T03:29:57.894Z,0.93
2022-12-04T03:31:03.426Z,0.93
2022-12-04T03:32:25.070Z,0.92
2022-12-04T03:33:30.357Z,0.93
2022-12-04T03:34:51.968Z,0.97
2022-12-04T03:35:59.745Z,0.97
2022-12-04T03:37:09.250Z,1.00
2022-12-04T03:38:29.118Z,0.97
2022-12-04T03:39:35.841Z,1.01
2022-12-04T03:40:39.816Z,0.95
2022-12-04T03:42:13.713Z,0.91
2022-12-04T03:43:19.869Z,0.84
2022-12-04T03:44:43.971Z,0.87
2022-12-04T03:45:48.475Z,0.89
2022-12-04T03:46:52.476Z,0.83
2022-12-04T03:47:58.911Z,0.76
2022-12-04T03:49:00.291Z,0.78
2022-12-04T03:50:04.220Z,0.77
2022-12-04T03:51:17.708Z,0.77
2022-12-04T03:52:37.880Z,0.82
2022-12-04T03:53:45.801Z,0.78
2022-12-04T03:54:50.222Z,0.70
2022-12-04T03:56:00.008Z,0.72
2022-12-04T03:57:03.296Z,0.79
2022-12-04T03:58:07.348Z,0.77
2022-12-04T03:59:19.483Z,0.74
2022-12-04T04:00:21.714Z,0.77
2022-12-04T04:01:26.101Z,0.79
2022-12-04T04:02:30.250Z,0.70
2022-12-04T04:03:33.983Z,0.68
2022-12-04T04:04:36.651Z,0.74
2022-12-04T04:05:41.994Z,0.76
2022-12-04T04:06:49.070Z,0.80
2022-12-04T04:07:55.850Z,0.77
2022-12-04T04:08:59.904Z,0.75
2022-12-04T04:10:05.772Z,0.77
2022-12-04T04:11:13.525Z,0.73
2022-12-04T04:12:26.821Z,0.78
2022-12-04T04:13:34.423Z,0.89
2022-12-04T04:14:41.312Z,0.93
2022-12-04T04:15:45.796Z,1.00
2022-12-04T04:16:49.191Z,1.08
2022-12-04T04:17:51.092Z,1.12
2022-12-04T04:18:54.008Z,1.14
2022-12-04T04:20:02.572Z,1.16
2022-12-04T04:21:04.188Z,1.15
2022-12-04T04:22:07.495Z,1.17
2022-12-04T04:23:11.304Z,1.18
2022-12-04T04:24:21.810Z,1.12
2022-12-04T04:25:24.745Z,1.11
2022-12-04T04:26:27.690Z,1.12
2022-12-04T04:27:29.101Z,1.14
2022-12-04T04:28:30.420Z,1.13
2022-12-04T04:29:31.852Z,1.09
2022-12-04T04:30:34.849Z,1.05
2022-12-04T04:31:36.216Z,1.02
2022-12-04T04:32:52.725Z,0.94
2022-12-04T04:34:02.114Z,0.94
2022-12-04T04:35:07.828Z,0.87
2022-12-04T04:36:15.003Z,0.87
2022-12-04T04:37:34.728Z,0.79
2022-12-04T04:38:56.619Z,0.76
2022-12-04T04:40:13.123Z,0.76
2022-12-04T04:41:19.799Z,0.71
2022-12-04T04:42:23.703Z,0.67
2022-12-04T04:43:43.980Z,0.67
2022-12-04T04:44:53.739Z,0.56
2022-12-04T04:45:58.989Z,0.55
2022-12-04T04:47:04.441Z,0.58
2022-12-04T04:48:05.795Z,0.58
2022-12-04T04:49:10.158Z,0.51
2022-12-04T04:50:12.451Z,0.56
2022-12-04T04:51:14.096Z,0.56
2022-12-04T04:52:17.430Z,0.56
2022-12-04T04:53:21.416Z,0.57
2022-12-04T04:54:23.325Z,0.57
2022-12-04T04:55:24.683Z,0.53
2022-12-04T04:56:26.060Z,0.49
2022-12-04T04:57:28.537Z,0.51
2022-12-04T04:58:29.938Z,0.47
2022-12-04T04:59:31.339Z,0.39
2022-12-04T05:00:32.732Z,0.37
2022-12-04T05:01:34.217Z,0.31
2022-12-04T05:02:35.702Z,0.28
2022-12-04T05:03:37.209Z,0.28
2022-12-04T05:04:38.553Z,0.35
2022-12-04T05:05:39.914Z,0.35
2022-12-04T05:06:41.322Z,0.42
2022-12-04T05:07:42.871Z,0.44
2022-12-04T05:08:44.282Z,0.50
2022-12-04T05:09:45.644Z,0.50
2022-12-04T05:10:47.027Z,0.50
2022-12-04T05:11:48.403Z,0.56
2022-12-04T05:12:49.772Z,0.63
2022-12-04T05:13:51.344Z,0.67
2022-12-04T05:14:52.714Z,0.70
2022-12-04T05:16:01.454Z,0.63
2022-12-04T05:17:07.843Z,0.59
2022-12-04T05:18:13.868Z,0.54
2022-12-04T05:19:15.253Z,0.55
2022-12-04T05:20:16.796Z,0.50
2022-12-04T05:21:18.157Z,0.50
2022-12-04T05:22:30.303Z,0.41
2022-12-04T05:23:31.660Z,0.40
2022-12-04T05:24:33.053Z,0.41
2022-12-04T05:25:34.424Z,0.44
2022-12-04T05:26:36.296Z,0.39
2022-12-04T05:27:37.636Z,0.40
2022-12-04T05:28:38.997Z,0.41
2022-12-04T05:29:40.453Z,0.38
2022-12-04T05:30:41.941Z,0.38
2022-12-04T05:31:43.412Z,0.35
2022-12-04T05:32:44.851Z,0.43
2022-12-04T05:33:46.244Z,0.45
2022-12-04T05:34:48.542Z,0.49
2022-12-04T05:36:16.067Z,0.50
2022-12-04T05:37:17.414Z,0.49
2022-12-04T05:38:18.803Z,0.49
2022-12-04T05:39:20.168Z,0.48
2022-12-04T05:40:21.550Z,0.41
2022-12-04T05:41:23.077Z,0.38
2022-12-04T05:42:24.423Z,0.34
2022-12-04T05:43:26.180Z,0.32
2022-12-04T05:44:27.525Z,0.32
2022-12-04T05:45:28.866Z,0.35
2022-12-04T05:46:30.239Z,0.36
2022-12-04T05:47:31.633Z,0.38
2022-12-04T05:48:33.461Z,0.38
2022-12-04T05:49:35.304Z,0.37
2022-12-04T05:50:38.124Z,0.37
2022-12-04T05:51:39.511Z,0.40
2022-12-04T05:52:40.866Z,0.40
2022-12-04T05:53:42.222Z,0.44
2022-12-04T05:54:43.657Z,0.46
2022-12-04T05:55:45.064Z,0.47
2022-12-04T05:56:46.660Z,0.53
2022-12-04T05:57:48.001Z,0.55
2022-12-04T05:58:49.347Z,0.56
2022-12-04T05:59:50.895Z,0.55
2022-12-04T06:00:52.780Z,0.60
2022-12-04T06:01:54.179Z,0.65
2022-12-04T06:02:55.648Z,0.67
2022-12-04T06:03:57.074Z,0.71
2022-12-04T06:04:58.452Z,0.72
2022-12-04T06:05:59.816Z,0.74
2022-12-04T06:07:01.175Z,0.74
2022-12-04T06:08:02.620Z,0.73
2022-12-04T06:09:04.968Z,0.76
2022-12-04T06:10:06.818Z,0.79
2022-12-04T06:11:12.321Z,0.83
2022-12-04T06:12:13.701Z,0.69
2022-12-04T06:13:15.075Z,0.62
2022-12-04T06:14:16.405Z,0.66
2022-12-04T06:15:17.811Z,0.68
2022-12-04T06:16:20.951Z,0.70
2022-12-04T06:17:22.334Z,0.65
2022-12-04T06:18:23.700Z,0.68
2022-12-04T06:19:25.108Z,0.65
2022-12-04T06:20:26.562Z,0.66
2022-12-04T06:21:29.413Z,0.66
2022-12-04T06:22:30.786Z,0.65
2022-12-04T06:23:32.131Z,0.64
2022-12-04T06:24:33.482Z,0.59
2022-12-04T06:25:34.824Z,0.58
2022-12-04T06:26:36.283Z,0.55
2022-12-04T06:27:37.664Z,0.50
2022-12-04T06:28:39.011Z,0.41
2022-12-04T06:29:40.364Z,0.45
2022-12-04T06:30:41.754Z,0.46
2022-12-04T06:31:43.282Z,0.41
2022-12-04T06:32:44.677Z,0.43
2022-12-04T06:33:46.898Z,0.43
2022-12-04T06:34:54.494Z,0.47
2022-12-04T06:36:15.506Z,0.40
2022-12-04T06:37:16.914Z,0.35
2022-12-04T06:38:18.306Z,0.37
2022-12-04T06:39:19.714Z,0.29
2022-12-04T06:40:21.105Z,0.31
2022-12-04T06:41:22.972Z,0.28
2022-12-04T06:42:24.393Z,0.26
2022-12-04T06:43:25.790Z,0.22
2022-12-04T06:44:27.192Z,0.18
2022-12-04T06:45:28.607Z,0.22
2022-12-04T06:46:31.573Z,0.31
2022-12-04T06:47:33.964Z,0.33
2022-12-04T06:48:35.955Z,0.27
2022-12-04T06:49:37.425Z,0.29
2022-12-04T06:50:38.827Z,0.26
2022-12-04T06:51:40.207Z,0.33
2022-12-04T06:52:41.596Z,0.38
2022-12-04T06:53:43.586Z,0.36
2022-12-04T06:54:44.982Z,0.31
2022-12-04T06:55:49.197Z,0.32
2022-12-04T06:56:50.668Z,0.33
2022-12-04T06:57:52.052Z,0.36
2022-12-04T06:58:55.399Z,0.30
2022-12-04T06:59:57.120Z,0.24
2022-12-04T07:00:59.286Z,0.25
2022-12-04T07:02:00.751Z,0.24
2022-12-04T07:03:02.158Z,0.33
2022-12-04T07:04:04.057Z,0.39
2022-12-04T07:05:05.846Z,0.47
2022-12-04T07:06:26.708Z,0.40
2022-12-04T07:07:28.091Z,0.43
2022-12-04T07:08:29.472Z,0.46
2022-12-04T07:09:30.846Z,0.47
2022-12-04T07:10:32.245Z,0.49
2022-12-04T07:11:34.286Z,0.45
2022-12-04T07:12:35.684Z,0.47
2022-12-04T07:13:37.097Z,0.46
2022-12-04T07:14:38.481Z,0.50
2022-12-04T07:15:39.875Z,0.59
2022-12-04T07:16:42.378Z,0.60
2022-12-04T07:17:43.992Z,0.53
2022-12-04T07:18:45.482Z,0.48
2022-12-04T07:19:46.900Z,0.40
2022-12-04T07:20:48.274Z,0.38
2022-12-04T07:21:49.653Z,0.51
2022-12-04T07:22:51.038Z,0.59
2022-12-04T07:23:53.699Z,0.54
2022-12-04T07:24:55.068Z,0.45
2022-12-04T07:25:56.421Z,0.44
2022-12-04T07:26:57.859Z,0.48
2022-12-04T07:27:59.243Z,0.45
2022-12-04T07:29:00.634Z,0.45
2022-12-04T07:30:02.027Z,0.45
2022-12-04T07:31:10.638Z,0.45
2022-12-04T07:32:12.105Z,0.37
2022-12-04T07:33:13.507Z,0.34
2022-12-04T07:34:14.843Z,0.38
2022-12-04T07:35:16.291Z,0.43
2022-12-04T07:36:19.095Z,0.45
2022-12-04T07:37:20.490Z,0.47
2022-12-04T07:38:21.862Z,0.40
2022-12-04T07:39:23.196Z,0.38
2022-12-04T07:40:24.799Z,0.36
2022-12-04T07:41:26.251Z,0.37
2022-12-04T07:42:28.213Z,0.40
2022-12-04T07:43:30.868Z,0.40
2022-12-04T07:44:32.212Z,0.40
2022-12-04T07:45:33.643Z,0.45
2022-12-04T07:46:35.163Z,0.41
2022-12-04T07:47:36.623Z,0.46
2022-12-04T07:48:38.012Z,0.48
2022-12-04T07:49:39.880Z,0.54
2022-12-04T07:50:41.259Z,0.60
2022-12-04T07:51:42.665Z,0.61
2022-12-04T07:52:44.043Z,0.62
2022-12-04T07:53:45.671Z,0.61
2022-12-04T07:54:47.042Z,0.63
2022-12-04T07:55:51.922Z,0.61
2022-12-04T07:56:53.340Z,0.60
2022-12-04T07:57:54.734Z,0.60
2022-12-04T07:58:56.115Z,0.61
2022-12-04T07:59:57.809Z,0.57
2022-12-04T08:01:12.249Z,0.56
2022-12-04T08:02:13.913Z,0.62
2022-12-04T08:03:15.306Z,0.58
2022-12-04T08:04:16.730Z,0.62
2022-12-04T08:05:18.233Z,0.57
2022-12-04T08:06:20.890Z,0.53
2022-12-04T08:07:22.259Z,0.57
2022-12-04T08:08:23.629Z,0.59
2022-12-04T08:09:24.999Z,0.63
2022-12-04T08:10:26.430Z,0.63
2022-12-04T08:11:27.844Z,0.65
2022-12-04T08:12:31.102Z,0.65
2022-12-04T08:13:32.485Z,0.69
2022-12-04T08:14:33.923Z,0.71
2022-12-04T08:15:35.445Z,0.79
2022-12-04T08:16:37.184Z,0.78
2022-12-04T08:17:38.618Z,0.84
2022-12-04T08:18:40.250Z,0.89
2022-12-04T08:19:41.667Z,0.90
2022-12-04T08:20:43.285Z,0.91
2022-12-04T08:21:44.671Z,0.93
2022-12-04T08:22:46.038Z,0.92
2022-12-04T08:23:47.889Z,0.92
2022-12-04T08:24:49.251Z,0.94
2022-12-04T08:25:50.615Z,0.99
2022-12-04T08:26:51.997Z,1.03
2022-12-04T08:27:53.371Z,1.02
2022-12-04T08:28:55.389Z,1.02
2022-12-04T08:29:57.014Z,1.06
2022-12-04T08:31:02.680Z,1.06
2022-12-04T08:32:04.215Z,1.08
2022-12-04T08:33:05.575Z,1.06
2022-12-04T08:34:07.513Z,1.03
2022-12-04T08:35:08.988Z,1.01
2022-12-04T08:36:12.347Z,1.02
2022-12-04T08:37:13.715Z,1.08
2022-12-04T08:38:15.085Z,1.10
2022-12-04T08:39:16.584Z,1.02
2022-12-04T08:40:17.946Z,0.92
2022-12-04T08:41:20.312Z,0.94
2022-12-04T08:42:21.654Z,0.96
2022-12-04T08:43:23.022Z,1.00
2022-12-04T08:44:24.425Z,1.01
2022-12-04T08:45:25.872Z,0.97
2022-12-04T08:46:27.689Z,0.98
2022-12-04T08:47:29.192Z,0.96
2022-12-04T08:48:31.218Z,0.97
2022-12-04T08:49:32.600Z,0.98
2022-12-04T08:50:33.963Z,1.03
2022-12-04T08:51:35.717Z,1.09
2022-12-04T08:52:37.067Z,1.16
2022-12-04T08:53:38.470Z,1.20
2022-12-04T08:54:39.907Z,1.22
2022-12-04T08:55:41.296Z,1.25
2022-12-04T08:56:42.697Z,1.26
2022-12-04T08:57:44.089Z,1.28
2022-12-04T08:58:45.425Z,1.28
2022-12-04T08:59:46.790Z,1.25
2022-12-04T09:00:48.191Z,1.26
2022-12-04T09:01:50.427Z,1.30
2022-12-04T09:02:51.852Z,1.29
2022-12-04T09:03:53.622Z,1.31
2022-12-04T09:04:55.198Z,1.32
2022-12-04T09:05:58.795Z,1.30
2022-12-04T09:07:00.234Z,1.29
2022-12-04T09:08:01.664Z,1.25
2022-12-04T09:09:03.469Z,1.26
2022-12-04T09:10:05.147Z,1.27
2022-12-04T09:11:07.687Z,1.27
2022-12-04T09:12:09.083Z,1.28
2022-12-04T09:13:10.538Z,1.24
2022-12-04T09:14:12.171Z,1.28
2022-12-04T09:15:13.871Z,1.35
2022-12-04T09:16:16.712Z,1.40
2022-12-04T09:17:18.126Z,1.40
2022-12-04T09:18:19.499Z,1.43
2022-12-04T09:19:21.025Z,1.42
2022-12-04T09:20:22.501Z,1.40
2022-12-04T09:21:24.864Z,1.35
2022-12-04T09:22:26.281Z,1.34
2022-12-04T09:23:27.920Z,1.37
2022-12-04T09:24:29.922Z,1.35
2022-12-04T09:25:31.725Z,1.34
2022-12-04T09:26:33.469Z,1.34
2022-12-04T09:27:38.528Z,1.31
2022-12-04T09:28:39.892Z,1.30
2022-12-04T09:29:41.265Z,1.34
2022-12-04T09:30:42.681Z,1.37
2022-12-04T09:31:44.106Z,1.42
2022-12-04T09:32:45.538Z,1.40
2022-12-04T09:33:47.343Z,1.39
2022-12-04T09:34:52.721Z,1.40
2022-12-04T09:35:54.742Z,1.39
2022-12-04T09:36:56.152Z,1.36
2022-12-04T09:37:57.501Z,1.35
2022-12-04T09:38:59.011Z,1.36
2022-12-04T09:40:00.412Z,1.36
2022-12-04T09:41:07.726Z,1.34
2022-12-04T09:42:17.949Z,1.31
2022-12-04T09:43:28.183Z,1.29
2022-12-04T09:44:31.564Z,1.32
2022-12-04T09:45:41.170Z,1.37
2022-12-04T09:46:51.880Z,1.36
2022-12-04T09:47:56.274Z,1.30
2022-12-04T09:49:02.102Z,1.32
2022-12-04T09:50:05.982Z,1.34
2022-12-04T09:51:09.747Z,1.38
2022-12-04T09:52:30.079Z,1.41
2022-12-04T09:53:46.770Z,1.46
2022-12-04T09:54:48.877Z,1.47
2022-12-04T09:56:02.103Z,1.42
2022-12-04T09:57:10.610Z,1.44
2022-12-04T09:58:17.904Z,1.49
2022-12-04T09:59:27.403Z,1.54
2022-12-04T10:00:29.791Z,1.54
2022-12-04T10:01:35.173Z,1.50
2022-12-04T10:02:38.199Z,1.50
2022-12-04T10:03:39.799Z,1.53
2022-12-04T10:04:41.328Z,1.56
2022-12-04T10:05:58.901Z,1.60
2022-12-04T10:07:12.881Z,1.50
2022-12-04T10:08:26.694Z,1.47
2022-12-04T10:09:35.067Z,1.46
2022-12-04T10:10:39.195Z,1.48
2022-12-04T10:11:43.061Z,1.48
2022-12-04T10:12:53.569Z,1.44
2022-12-04T10:14:13.623Z,1.49
2022-12-04T10:15:34.059Z,1.49
2022-12-04T10:16:50.529Z,1.54
2022-12-04T10:18:48.681Z,1.51
2022-12-04T10:20:11.222Z,1.56
2022-12-04T10:21:18.309Z,1.59
2022-12-04T10:22:43.086Z,1.58
2022-12-04T10:23:53.673Z,1.59
2022-12-04T10:25:05.572Z,1.68
2022-12-04T10:26:14.502Z,1.74
2022-12-04T10:27:28.141Z,1.81
2022-12-04T10:28:33.861Z,1.83
2022-12-04T10:29:37.898Z,1.87
2022-12-04T10:30:43.168Z,1.87
2022-12-04T10:31:47.179Z,1.81
2022-12-04T10:33:00.779Z,1.79
2022-12-04T10:34:07.984Z,1.80
2022-12-04T10:35:27.605Z,1.82
2022-12-04T10:36:33.473Z,1.89
2022-12-04T10:37:40.408Z,1.99
2022-12-04T10:39:14.494Z,2.10
2022-12-04T10:40:23.154Z,2.11
2022-12-04T10:41:39.630Z,2.10
2022-12-04T10:42:49.289Z,2.10
2022-12-04T10:43:51.132Z,2.02
2022-12-04T10:44:53.899Z,1.99
2022-12-04T10:45:55.532Z,1.96
2022-12-04T10:47:00.308Z,1.95
2022-12-04T10:48:01.874Z,1.93
2022-12-04T10:49:12.164Z,1.92
2022-12-04T10:50:19.062Z,1.93
2022-12-04T10:51:21.595Z,1.88
2022-12-04T10:52:23.218Z,1.90
2022-12-04T10:53:30.561Z,1.93
2022-12-04T10:54:54.190Z,1.94
2022-12-04T10:55:55.714Z,1.96
2022-12-04T10:57:09.423Z,2.04
2022-12-04T10:58:18.398Z,2.06
2022-12-04T10:59:19.998Z,2.06
2022-12-04T11:00:35.847Z,2.05
2022-12-04T11:01:37.572Z,1.99
2022-12-04T11:02:39.671Z,1.99
2022-12-04T11:03:45.037Z,2.00
2022-12-04T11:05:24.305Z,2.01
2022-12-04T11:06:26.893Z,2.03
2022-12-04T11:07:34.405Z,2.06
2022-12-04T11:08:48.641Z,2.08
2022-12-04T11:10:08.213Z,1.96
2022-12-04T11:11:13.677Z,1.98
2022-12-04T11:12:21.520Z,1.95
2022-12-04T11:13:24.437Z,1.96
2022-12-04T11:14:25.919Z,1.91
2022-12-04T11:15:27.869Z,2.01
2022-12-04T11:16:34.628Z,1.98
2022-12-04T11:17:36.248Z,1.98
2022-12-04T11:18:50.233Z,2.00
2022-12-04T11:20:30.012Z,2.00
2022-12-04T11:21:32.253Z,2.01
2022-12-04T11:22:47.907Z,2.00
2022-12-04T11:23:51.243Z,2.00
2022-12-04T11:24:56.456Z,1.96
2022-12-04T11:26:05.486Z,1.98
2022-12-04T11:27:16.367Z,1.99
2022-12-04T11:28:40.754Z,2.04
2022-12-04T11:29:46.247Z,2.10
2022-12-04T11:30:51.875Z,2.10
2022-12-04T11:31:55.479Z,2.05
2022-12-04T11:32:57.668Z,2.09
2022-12-04T11:34:15.621Z,2.16
2022-12-04T11:35:29.288Z,2.20
2022-12-04T11:36:41.503Z,2.21
2022-12-04T11:37:53.914Z,2.27
2022-12-04T11:39:06.599Z,2.27
2022-12-04T11:40:18.672Z,2.32
2022-12-04T11:41:31.832Z,2.35
2022-12-04T11:42:33.438Z,2.36
2022-12-04T11:43:35.226Z,2.36
2022-12-04T11:44:36.735Z,2.30
2022-12-04T11:45:38.828Z,2.29
2022-12-04T11:46:40.356Z,2.29
2022-12-04T11:47:52.400Z,2.27
2022-12-04T11:48:54.088Z,2.25
2022-12-04T11:50:03.258Z,2.23
2022-12-04T11:51:25.649Z,2.25
2022-12-04T11:52:38.290Z,2.29
2022-12-04T11:53:47.991Z,2.23
2022-12-04T11:55:17.645Z,2.32
2022-12-04T11:56:29.137Z,2.34
2022-12-04T11:57:38.924Z,2.38
2022-12-04T11:59:17.766Z,2.38
2022-12-04T12:00:21.634Z,2.36
2022-12-04T12:02:11.071Z,2.35
2022-12-04T12:03:23.610Z,2.34
2022-12-04T12:04:57.209Z,2.37
2022-12-04T12:06:37.255Z,2.42
2022-12-04T12:07:50.842Z,2.36
2022-12-04T12:09:33.238Z,2.38
2022-12-04T12:10:54.964Z,2.39
2022-12-04T12:12:05.322Z,2.39
2022-12-04T12:13:19.174Z,2.46
2022-12-04T12:14:47.067Z,2.48
2022-12-04T12:16:33.443Z,2.47
2022-12-04T12:17:49.770Z,2.37
2022-12-04T12:19:22.231Z,2.37
2022-12-04T12:20:23.671Z,2.37
2022-12-04T12:21:39.375Z,2.30
2022-12-04T12:22:48.718Z,2.36
2022-12-04T12:24:03.510Z,2.38
2022-12-04T12:25:21.357Z,2.36
2022-12-04T12:26:34.298Z,2.42
2022-12-04T12:27:57.100Z,2.38
2022-12-04T12:29:27.124Z,2.37
2022-12-04T12:30:52.362Z,2.38
2022-12-04T12:32:15.000Z,2.47
2022-12-04T12:33:28.876Z,2.50
2022-12-04T12:34:35.791Z,2.50
2022-12-04T12:35:57.683Z,2.51
2022-12-04T12:37:02.226Z,2.49
2022-12-04T12:38:09.942Z,2.52
2022-12-04T12:39:19.865Z,2.49
2022-12-04T12:40:36.243Z,2.53
2022-12-04T12:41:45.540Z,2.55
2022-12-04T12:42:57.988Z,2.55
2022-12-04T12:44:09.888Z,2.54
2022-12-04T12:45:40.260Z,2.56
2022-12-04T12:46:49.165Z,2.53
2022-12-04T12:47:55.093Z,2.41
2022-12-04T12:49:07.151Z,2.46
2022-12-04T12:50:43.838Z,2.45
2022-12-04T12:51:51.582Z,2.45
2022-12-04T12:53:01.669Z,2.49
2022-12-04T12:54:26.214Z,2.50
2022-12-04T12:55:54.756Z,2.51
2022-12-04T12:57:04.688Z,2.42
2022-12-04T12:58:15.715Z,2.41
2022-12-04T12:59:20.973Z,2.44
2022-12-04T13:00:24.111Z,2.48
2022-12-04T13:01:35.383Z,2.44
2022-12-04T13:02:44.658Z,2.37
2022-12-04T13:03:58.141Z,2.37
2022-12-04T13:05:05.265Z,2.32
2022-12-04T13:06:14.390Z,2.38
2022-12-04T13:07:18.346Z,2.32
2022-12-04T13:08:29.883Z,2.29
2022-12-04T13:09:34.410Z,2.32
2022-12-04T13:10:48.617Z,2.27
2022-12-04T13:11:52.655Z,2.24
2022-12-04T13:12:59.844Z,2.20
2022-12-04T13:14:03.452Z,2.23
2022-12-04T13:15:05.456Z,2.26
2022-12-04T13:16:10.668Z,2.30
2022-12-04T13:17:38.314Z,2.30
2022-12-04T13:18:58.143Z,2.30
2022-12-04T13:20:09.983Z,2.33
2022-12-04T13:21:28.061Z,2.27
2022-12-04T13:22:51.672Z,2.30
2022-12-04T13:24:15.594Z,2.35
2022-12-04T13:25:26.708Z,2.41
2022-12-04T13:27:07.386Z,2.42
2022-12-04T13:28:34.965Z,2.42
2022-12-04T13:30:14.981Z,2.39
2022-12-04T13:31:35.115Z,2.30
2022-12-04T13:33:14.020Z,2.30
2022-12-04T13:34:27.886Z,2.32
2022-12-04T13:35:32.202Z,2.31
2022-12-04T13:37:38.455Z,2.32
2022-12-04T13:38:49.935Z,2.35
2022-12-04T13:40:14.839Z,2.30
2022-12-04T13:41:19.935Z,2.28
2022-12-04T13:42:27.260Z,2.22
2022-12-04T13:43:40.676Z,2.17
2022-12-04T13:44:42.255Z,2.15
2022-12-04T13:45:49.858Z,2.18
2022-12-04T13:47:00.570Z,2.25
2022-12-04T13:48:03.363Z,2.24
2022-12-04T13:49:09.004Z,2.28
2022-12-04T13:50:19.480Z,2.29
2022-12-04T13:51:33.614Z,2.27
2022-12-04T13:52:40.990Z,2.24
2022-12-04T13:53:46.154Z,2.25
2022-12-04T13:54:58.742Z,2.33
2022-12-04T13:56:06.057Z,2.31
2022-12-04T13:57:16.265Z,2.33
2022-12-04T13:58:17.689Z,2.32
2022-12-04T13:59:28.390Z,2.27
2022-12-04T14:00:37.227Z,2.24
2022-12-04T14:01:41.731Z,2.24
2022-12-04T14:02:51.326Z,2.19
2022-12-04T14:03:53.921Z,2.19
2022-12-04T14:05:01.504Z,2.25
2022-12-04T14:06:05.120Z,2.28
2022-12-04T14:07:07.054Z,2.28
2022-12-04T14:08:31.771Z,2.34
2022-12-04T14:09:49.635Z,2.30
2022-12-04T14:11:05.559Z,2.29
2022-12-04T14:12:10.665Z,2.29
2022-12-04T14:13:12.090Z,2.24
2022-12-04T14:14:31.296Z,2.19
2022-12-04T14:15:36.758Z,2.09
2022-12-04T14:16:42.507Z,2.08
2022-12-04T14:17:55.860Z,2.09
2022-12-04T14:19:00.496Z,2.12
2022-12-04T14:20:08.109Z,2.12
2022-12-04T14:21:09.870Z,2.11
2022-12-04T14:22:37.604Z,2.13
2022-12-04T14:23:41.645Z,2.12
2022-12-04T14:24:43.147Z,2.14
2022-12-04T14:25:44.810Z,2.20
2022-12-04T14:28:41.885Z,2.22
2022-12-04T14:29:52.554Z,2.21
2022-12-04T14:31:20.665Z,2.24
2022-12-04T14:32:25.970Z,2.18
2022-12-04T14:33:27.704Z,2.17
2022-12-04T14:34:31.333Z,2.12
2022-12-04T14:35:33.398Z,2.15
2022-12-04T14:36:40.986Z,2.15
2022-12-04T14:37:57.177Z,2.12
2022-12-04T14:39:12.577Z,2.10
2022-12-04T14:40:38.992Z,2.13
2022-12-04T14:41:40.947Z,2.15
2022-12-04T14:42:42.524Z,2.17
2022-12-04T14:43:45.295Z,2.14
2022-12-04T14:44:51.644Z,2.16